aviador You're here:

SBKP Decoded Metar

CAMPINAS in BRAZIL
Report Time2018-01-21 08:00:00
UTC Time2018-01-21 08:37:06
Flight Rules vfr VFR
Wind120° at 05 kt
W.Decomp.*RWY 15: 4.9 kt HW 0.9 kt LCW
W.Rank120° ranks 1
Current wind is below 120° avg. (9.1)
Visibility9999 m
Phenomena:N/A
Clouds:Few 001 Hf
Expected CloudBase > 400 ft AGL from Temp-Dew spread
CeilingNone
Temp20°C (ISA +9)
Dew Point19°C (94% RH)
QNH1016 hPa
Density Alt3,455 ft
Elevation2,169 ft
Report Wrong Elevation
Raw Report
METAR SBKP 210800Z 12005KT 9999 FEW001 20/19 Q1016=

Extra information for SBKP:More info

Metar Taf Metar & Taf Last 4 Metars F.Rules Stats Wind Profile Meteogram Temp Stats Airport Information Weather charts Add Link Nearby VenuesMetar ALERT Operation Metar Decoded Social comments